sensor_id;sensor_type;location;lat;lon;timestamp;pressure;altitude;pressure_sealevel;temperature;humidity
71392;BME280;59205;50.610;12.638;2022-12-16T00:02:14;94575.78;;;-3.76;80.58
71392;BME280;59205;50.610;12.638;2022-12-16T00:04:39;94567.47;;;-3.75;80.51
71392;BME280;59205;50.610;12.638;2022-12-16T00:07:05;94568.72;;;-3.86;81.22
71392;BME280;59205;50.610;12.638;2022-12-16T00:09:30;94566.16;;;-3.97;81.78
71392;BME280;59205;50.610;12.638;2022-12-16T00:11:56;94569.22;;;-4.02;82.67
71392;BME280;59205;50.610;12.638;2022-12-16T00:14:21;94576.81;;;-4.04;83.44
71392;BME280;59205;50.610;12.638;2022-12-16T00:16:46;94575.94;;;-3.90;82.84
71392;BME280;59205;50.610;12.638;2022-12-16T00:19:12;94576.22;;;-3.81;81.99
71392;BME280;59205;50.610;12.638;2022-12-16T00:21:37;94567.91;;;-3.83;82.24
71392;BME280;59205;50.610;12.638;2022-12-16T00:24:03;94565.66;;;-3.85;82.86
71392;BME280;59205;50.610;12.638;2022-12-16T00:26:28;94559.22;;;-3.84;82.53
71392;BME280;59205;50.610;12.638;2022-12-16T00:28:55;94559.22;;;-3.84;81.54
71392;BME280;59205;50.610;12.638;2022-12-16T00:31:22;94561.84;;;-3.80;81.90
71392;BME280;59205;50.610;12.638;2022-12-16T00:33:47;94567.31;;;-4.01;82.95
71392;BME280;59205;50.610;12.638;2022-12-16T00:36:13;94568.09;;;-4.04;83.98
71392;BME280;59205;50.610;12.638;2022-12-16T00:38:38;94572.25;;;-4.03;83.62
71392;BME280;59205;50.610;12.638;2022-12-16T00:41:04;94578.25;;;-3.99;83.62
71392;BME280;59205;50.610;12.638;2022-12-16T00:43:29;94574.88;;;-4.00;83.60
71392;BME280;59205;50.610;12.638;2022-12-16T00:45:55;94573.03;;;-4.03;84.77
71392;BME280;59205;50.610;12.638;2022-12-16T00:48:21;94565.53;;;-4.11;86.43
71392;BME280;59205;50.610;12.638;2022-12-16T00:50:52;94567.38;;;-4.08;88.28
71392;BME280;59205;50.610;12.638;2022-12-16T00:53:18;94562.53;;;-4.13;88.05
71392;BME280;59205;50.610;12.638;2022-12-16T00:55:43;94565.03;;;-3.99;88.07
71392;BME280;59205;50.610;12.638;2022-12-16T00:58:11;94560.19;;;-4.04;86.55
71392;BME280;59205;50.610;12.638;2022-12-16T01:00:36;94549.59;;;-4.04;85.56
71392;BME280;59205;50.610;12.638;2022-12-16T01:03:03;94551.81;;;-3.99;85.75
71392;BME280;59205;50.610;12.638;2022-12-16T01:05:28;94558.59;;;-3.98;84.92
71392;BME280;59205;50.610;12.638;2022-12-16T01:07:54;94554.81;;;-3.97;84.79
71392;BME280;59205;50.610;12.638;2022-12-16T01:10:21;94564.03;;;-4.12;87.51
71392;BME280;59205;50.610;12.638;2022-12-16T01:12:46;94571.69;;;-4.28;89.88
71392;BME280;59205;50.610;12.638;2022-12-16T01:15:12;94571.09;;;-4.50;92.34
71392;BME280;59205;50.610;12.638;2022-12-16T01:17:39;94577.91;;;-4.52;93.63
71392;BME280;59205;50.610;12.638;2022-12-16T01:20:06;94574.44;;;-4.39;91.57
71392;BME280;59205;50.610;12.638;2022-12-16T01:22:32;94577.88;;;-4.45;91.44
71392;BME280;59205;50.610;12.638;2022-12-16T01:24:58;94578.28;;;-4.50;91.64
71392;BME280;59205;50.610;12.638;2022-12-16T01:27:24;94575.34;;;-4.66;92.44
71392;BME280;59205;50.610;12.638;2022-12-16T01:29:50;94568.59;;;-4.71;92.55
71392;BME280;59205;50.610;12.638;2022-12-16T01:32:15;94566.28;;;-4.65;92.88
71392;BME280;59205;50.610;12.638;2022-12-16T01:34:41;94566.31;;;-4.69;92.56
71392;BME280;59205;50.610;12.638;2022-12-16T01:37:11;94562.94;;;-4.69;92.58
71392;BME280;59205;50.610;12.638;2022-12-16T01:39:37;94556.09;;;-4.63;92.94
71392;BME280;59205;50.610;12.638;2022-12-16T01:42:02;94554.16;;;-4.56;92.87
71392;BME280;59205;50.610;12.638;2022-12-16T01:44:28;94554.09;;;-4.49;93.10
71392;BME280;59205;50.610;12.638;2022-12-16T01:46:59;94551.06;;;-4.47;93.20
71392;BME280;59205;50.610;12.638;2022-12-16T01:49:40;94543.22;;;-4.54;93.14
71392;BME280;59205;50.610;12.638;2022-12-16T01:52:16;94544.38;;;-4.59;92.86
71392;BME280;59205;50.610;12.638;2022-12-16T01:54:51;94532.66;;;-4.54;92.70
71392;BME280;59205;50.610;12.638;2022-12-16T01:57:25;94538.31;;;-4.59;94.35
71392;BME280;59205;50.610;12.638;2022-12-16T01:59:52;94536.03;;;-4.54;94.68
71392;BME280;59205;50.610;12.638;2022-12-16T02:02:19;94545.38;;;-4.42;93.62
71392;BME280;59205;50.610;12.638;2022-12-16T02:04:45;94530.06;;;-4.65;95.31
71392;BME280;59205;50.610;12.638;2022-12-16T02:07:29;94540.22;;;-4.60;95.54
71392;BME280;59205;50.610;12.638;2022-12-16T02:09:54;94532.59;;;-4.47;95.02
71392;BME280;59205;50.610;12.638;2022-12-16T02:12:42;94538.72;;;-4.61;95.03
71392;BME280;59205;50.610;12.638;2022-12-16T02:18:16;94535.28;;;-4.54;94.79
71392;BME280;59205;50.610;12.638;2022-12-16T02:26:54;94531.16;;;-4.55;93.02
71392;BME280;59205;50.610;12.638;2022-12-16T02:32:25;94528.78;;;-4.43;94.81
71392;BME280;59205;50.610;12.638;2022-12-16T02:35:47;94532.53;;;-4.40;95.11
71392;BME280;59205;50.610;12.638;2022-12-16T02:38:21;94532.59;;;-4.47;95.23
71392;BME280;59205;50.610;12.638;2022-12-16T02:46:06;94530.00;;;-4.54;96.25
71392;BME280;59205;50.610;12.638;2022-12-16T02:48:32;94536.38;;;-4.48;97.15
71392;BME280;59205;50.610;12.638;2022-12-16T02:50:58;94537.09;;;-4.44;96.60
71392;BME280;59205;50.610;12.638;2022-12-16T02:53:24;94532.59;;;-4.51;95.72
71392;BME280;59205;50.610;12.638;2022-12-16T02:58:42;94531.19;;;-4.62;95.30
71392;BME280;59205;50.610;12.638;2022-12-16T03:03:54;94538.78;;;-4.68;95.34
71392;BME280;59205;50.610;12.638;2022-12-16T03:06:23;94533.50;;;-4.68;96.00
71392;BME280;59205;50.610;12.638;2022-12-16T03:08:55;94533.03;;;-4.59;95.48
71392;BME280;59205;50.610;12.638;2022-12-16T03:11:24;94524.75;;;-4.61;95.45
71392;BME280;59205;50.610;12.638;2022-12-16T03:13:54;94525.22;;;-4.73;94.79
71392;BME280;59205;50.610;12.638;2022-12-16T03:16:21;94528.91;;;-4.60;94.44
71392;BME280;59205;50.610;12.638;2022-12-16T03:18:53;94540.97;;;-4.59;93.63
71392;BME280;59205;50.610;12.638;2022-12-16T03:21:21;94537.94;;;-4.54;93.53
71392;BME280;59205;50.610;12.638;2022-12-16T03:24:00;94537.94;;;-4.54;94.02
71392;BME280;59205;50.610;12.638;2022-12-16T03:26:31;94540.22;;;-4.56;93.65
71392;BME280;59205;50.610;12.638;2022-12-16T03:29:06;94540.22;;;-4.56;92.81
71392;BME280;59205;50.610;12.638;2022-12-16T03:34:34;94547.78;;;-4.62;92.96
71392;BME280;59205;50.610;12.638;2022-12-16T03:37:04;94543.09;;;-4.40;95.16
71392;BME280;59205;50.610;12.638;2022-12-16T03:39:32;94550.81;;;-4.63;94.76
71392;BME280;59205;50.610;12.638;2022-12-16T03:42:00;94549.50;;;-4.96;94.67
71392;BME280;59205;50.610;12.638;2022-12-16T03:44:26;94548.72;;;-4.93;95.31
71392;BME280;59205;50.610;12.638;2022-12-16T03:46:52;94562.34;;;-5.01;95.06
71392;BME280;59205;50.610;12.638;2022-12-16T03:49:17;94555.47;;;-4.85;94.29
71392;BME280;59205;50.610;12.638;2022-12-16T03:51:43;94551.66;;;-4.80;93.28
71392;BME280;59205;50.610;12.638;2022-12-16T03:54:09;94553.88;;;-4.72;92.78
71392;BME280;59205;50.610;12.638;2022-12-16T03:56:34;94557.22;;;-4.64;91.80
71392;BME280;59205;50.610;12.638;2022-12-16T03:58:59;94562.13;;;-4.63;90.79
71392;BME280;59205;50.610;12.638;2022-12-16T04:01:25;94563.28;;;-4.67;90.47
71392;BME280;59205;50.610;12.638;2022-12-16T04:03:51;94561.03;;;-4.69;91.12
71392;BME280;59205;50.610;12.638;2022-12-16T04:06:16;94557.66;;;-4.73;92.06
71392;BME280;59205;50.610;12.638;2022-12-16T04:08:46;94561.88;;;-4.82;93.19
71392;BME280;59205;50.610;12.638;2022-12-16T04:11:14;94576.97;;;-4.86;94.03
71392;BME280;59205;50.610;12.638;2022-12-16T04:14:18;94586.84;;;-4.97;94.06
71392;BME280;59205;50.610;12.638;2022-12-16T04:17:03;94589.09;;;-4.96;94.10
71392;BME280;59205;50.610;12.638;2022-12-16T04:19:47;94585.63;;;-4.82;94.56
71392;BME280;59205;50.610;12.638;2022-12-16T04:22:34;94589.03;;;-4.85;94.13
71392;BME280;59205;50.610;12.638;2022-12-16T04:25:22;94584.91;;;-4.83;94.51
71392;BME280;59205;50.610;12.638;2022-12-16T04:27:48;94584.56;;;-4.92;94.66
71392;BME280;59205;50.610;12.638;2022-12-16T04:30:17;94583.50;;;-5.04;95.49
71392;BME280;59205;50.610;12.638;2022-12-16T04:32:44;94584.22;;;-5.01;95.47
71392;BME280;59205;50.610;12.638;2022-12-16T04:35:28;94587.22;;;-4.95;95.22
71392;BME280;59205;50.610;12.638;2022-12-16T04:38:12;94589.09;;;-4.96;94.71
71392;BME280;59205;50.610;12.638;2022-12-16T04:40:56;94584.97;;;-5.00;95.11
71392;BME280;59205;50.610;12.638;2022-12-16T04:43:40;94591.06;;;-5.06;95.60
71392;BME280;59205;50.610;12.638;2022-12-16T04:46:24;94592.19;;;-5.14;95.36
71392;BME280;59205;50.610;12.638;2022-12-16T04:49:08;94584.28;;;-5.11;94.38
71392;BME280;59205;50.610;12.638;2022-12-16T04:51:54;94591.06;;;-5.13;94.44
71392;BME280;59205;50.610;12.638;2022-12-16T04:54:38;94602.38;;;-5.16;94.18
71392;BME280;59205;50.610;12.638;2022-12-16T04:57:22;94593.38;;;-5.19;94.71
71392;BME280;59205;50.610;12.638;2022-12-16T05:00:06;94587.69;;;-5.14;95.63
71392;BME280;59205;50.610;12.638;2022-12-16T05:02:50;94591.88;;;-5.27;95.12
71392;BME280;59205;50.610;12.638;2022-12-16T05:05:34;94599.38;;;-5.22;95.26
71392;BME280;59205;50.610;12.638;2022-12-16T05:08:18;94588.84;;;-5.22;95.68
71392;BME280;59205;50.610;12.638;2022-12-16T05:11:02;94591.81;;;-5.13;95.00
71392;BME280;59205;50.610;12.638;2022-12-16T05:13:46;94599.78;;;-5.23;95.62
71392;BME280;59205;50.610;12.638;2022-12-16T05:16:30;94600.19;;;-5.28;94.75
71392;BME280;59205;50.610;12.638;2022-12-16T05:19:14;94610.75;;;-5.35;95.86
71392;BME280;59205;50.610;12.638;2022-12-16T05:21:58;94611.47;;;-5.21;96.40
71392;BME280;59205;50.610;12.638;2022-12-16T05:24:42;94622.81;;;-5.27;96.22
71392;BME280;59205;50.610;12.638;2022-12-16T05:27:26;94617.19;;;-5.40;97.26
71392;BME280;59205;50.610;12.638;2022-12-16T05:30:10;94616.81;;;-5.49;97.22
71392;BME280;59205;50.610;12.638;2022-12-16T05:32:54;94619.84;;;-5.57;97.78
71392;BME280;59205;50.610;12.638;2022-12-16T05:35:38;94621.72;;;-5.51;97.68
71392;BME280;59205;50.610;12.638;2022-12-16T05:38:22;94621.00;;;-5.51;97.54
71392;BME280;59205;50.610;12.638;2022-12-16T05:41:06;94619.78;;;-5.33;96.58
71392;BME280;59205;50.610;12.638;2022-12-16T05:43:50;94613.72;;;-5.19;95.81
71392;BME280;59205;50.610;12.638;2022-12-16T05:46:34;94611.13;;;-5.33;95.61
71392;BME280;59205;50.610;12.638;2022-12-16T05:49:18;94628.78;;;-5.13;95.09
71392;BME280;59205;50.610;12.638;2022-12-16T05:52:02;94635.59;;;-5.26;95.20
71392;BME280;59205;50.610;12.638;2022-12-16T05:54:46;94634.94;;;-5.58;96.17
71392;BME280;59205;50.610;12.638;2022-12-16T05:57:29;94637.19;;;-5.60;96.29
71392;BME280;59205;50.610;12.638;2022-12-16T06:00:14;94634.94;;;-5.61;97.06
71392;BME280;59205;50.610;12.638;2022-12-16T06:02:58;94628.94;;;-5.72;97.86
71392;BME280;59205;50.610;12.638;2022-12-16T06:05:42;94637.25;;;-5.84;97.89
71392;BME280;59205;50.610;12.638;2022-12-16T06:08:26;94638.72;;;-5.76;98.09
71392;BME280;59205;50.610;12.638;2022-12-16T06:11:10;94649.66;;;-5.78;98.37
71392;BME280;59205;50.610;12.638;2022-12-16T06:13:55;94653.78;;;-5.63;98.26
71392;BME280;59205;50.610;12.638;2022-12-16T06:16:38;94662.81;;;-5.67;98.09
71392;BME280;59205;50.610;12.638;2022-12-16T06:19:22;94669.59;;;-5.70;98.26
71392;BME280;59205;50.610;12.638;2022-12-16T06:22:06;94664.31;;;-5.70;98.12
71392;BME280;59205;50.610;12.638;2022-12-16T06:24:50;94665.84;;;-5.72;98.35
71392;BME280;59205;50.610;12.638;2022-12-16T06:27:34;94671.47;;;-5.63;98.76
71392;BME280;59205;50.610;12.638;2022-12-16T06:30:18;94676.38;;;-5.69;98.17
71392;BME280;59205;50.610;12.638;2022-12-16T06:33:02;94685.44;;;-5.77;98.97
71392;BME280;59205;50.610;12.638;2022-12-16T06:35:46;94688.06;;;-5.77;98.82
71392;BME280;59205;50.610;12.638;2022-12-16T06:38:29;94689.19;;;-5.71;99.43
71392;BME280;59205;50.610;12.638;2022-12-16T06:41:13;94696.34;;;-5.68;98.83
71392;BME280;59205;50.610;12.638;2022-12-16T06:43:57;94704.25;;;-5.68;98.68
71392;BME280;59205;50.610;12.638;2022-12-16T06:46:41;94705.03;;;-5.78;98.96
71392;BME280;59205;50.610;12.638;2022-12-16T06:49:25;94708.81;;;-5.89;99.10
71392;BME280;59205;50.610;12.638;2022-12-16T06:52:09;94712.97;;;-5.88;99.33
71392;BME280;59205;50.610;12.638;2022-12-16T06:54:53;94716.31;;;-5.77;99.41
71392;BME280;59205;50.610;12.638;2022-12-16T06:57:37;94714.47;;;-5.87;99.66
71392;BME280;59205;50.610;12.638;2022-12-16T07:00:21;94724.25;;;-5.88;99.89
71392;BME280;59205;50.610;12.638;2022-12-16T07:03:05;94725.38;;;-5.85;99.99
71392;BME280;59205;50.610;12.638;2022-12-16T07:05:53;94734.78;;;-5.88;100.00
71392;BME280;59205;50.610;12.638;2022-12-16T07:08:37;94744.97;;;-5.86;100.00
71392;BME280;59205;50.610;12.638;2022-12-16T07:11:21;94755.16;;;-5.85;100.00
71392;BME280;59205;50.610;12.638;2022-12-16T07:14:05;94752.50;;;-5.95;100.00
71392;BME280;59205;50.610;12.638;2022-12-16T07:16:49;94758.53;;;-5.84;100.00
71392;BME280;59205;50.610;12.638;2022-12-16T07:19:33;94758.53;;;-5.84;100.00
71392;BME280;59205;50.610;12.638;2022-12-16T07:22:17;94772.06;;;-5.65;100.00
71392;BME280;59205;50.610;12.638;2022-12-16T07:25:01;94775.09;;;-5.70;100.00
71392;BME280;59205;50.610;12.638;2022-12-16T07:27:46;94777.72;;;-5.70;100.00
71392;BME280;59205;50.610;12.638;2022-12-16T07:30:30;94787.16;;;-5.58;100.00
71392;BME280;59205;50.610;12.638;2022-12-16T07:33:27;94786.03;;;-5.64;100.00
71392;BME280;59205;50.610;12.638;2022-12-16T07:36:11;94787.13;;;-5.76;100.00
71392;BME280;59205;50.610;12.638;2022-12-16T07:38:55;94789.78;;;-5.76;100.00
71392;BME280;59205;50.610;12.638;2022-12-16T07:41:39;94785.25;;;-5.75;100.00
71392;BME280;59205;50.610;12.638;2022-12-16T07:44:22;94787.91;;;-5.79;100.00
71392;BME280;59205;50.610;12.638;2022-12-16T07:47:06;94791.28;;;-5.47;100.00
71392;BME280;59205;50.610;12.638;2022-12-16T07:49:50;94789.78;;;-5.72;100.00
71392;BME280;59205;50.610;12.638;2022-12-16T07:52:34;94790.94;;;-5.56;100.00
71392;BME280;59205;50.610;12.638;2022-12-16T07:55:18;94790.53;;;-5.51;100.00
71392;BME280;59205;50.610;12.638;2022-12-16T07:58:19;94787.91;;;-5.61;100.00
71392;BME280;59205;50.610;12.638;2022-12-16T08:01:02;94792.44;;;-5.48;99.90
71392;BME280;59205;50.610;12.638;2022-12-16T08:03:47;94797.69;;;-5.65;99.59
71392;BME280;59205;50.610;12.638;2022-12-16T08:06:30;94797.31;;;-5.71;99.60
71392;BME280;59205;50.610;12.638;2022-12-16T08:09:14;94804.84;;;-5.73;99.81
71392;BME280;59205;50.610;12.638;2022-12-16T08:11:58;94800.38;;;-5.41;100.00
71392;BME280;59205;50.610;12.638;2022-12-16T08:14:42;94803.63;;;-4.57;100.00
71392;BME280;59205;50.610;12.638;2022-12-16T08:17:26;94815.06;;;-5.08;100.00
71392;BME280;59205;50.610;12.638;2022-12-16T08:20:10;94823.72;;;-5.15;100.00
71392;BME280;59205;50.610;12.638;2022-12-16T08:22:54;94840.31;;;-4.97;100.00
71392;BME280;59205;50.610;12.638;2022-12-16T08:25:38;94848.97;;;-5.38;98.74
71392;BME280;59205;50.610;12.638;2022-12-16T08:28:23;94842.16;;;-5.60;97.69
71392;BME280;59205;50.610;12.638;2022-12-16T08:31:14;94836.91;;;-5.57;97.70
71392;BME280;59205;50.610;12.638;2022-12-16T08:33:59;94847.06;;;-5.62;97.23
71392;BME280;59205;50.610;12.638;2022-12-16T08:36:43;94854.94;;;-5.66;97.14
71392;BME280;59205;50.610;12.638;2022-12-16T08:39:27;94852.34;;;-5.45;96.85
71392;BME280;59205;50.610;12.638;2022-12-16T08:42:13;94847.84;;;-5.41;96.25
71392;BME280;59205;50.610;12.638;2022-12-16T08:44:57;94855.38;;;-5.43;95.90
71392;BME280;59205;50.610;12.638;2022-12-16T08:47:52;94860.28;;;-5.13;95.16
71392;BME280;59205;50.610;12.638;2022-12-16T08:50:36;94857.28;;;-5.19;94.12
71392;BME280;59205;50.610;12.638;2022-12-16T08:53:20;94861.81;;;-5.30;93.20
71392;BME280;59205;50.610;12.638;2022-12-16T08:56:04;94868.22;;;-5.27;93.01
71392;BME280;59205;50.610;12.638;2022-12-16T08:58:48;94879.91;;;-4.83;91.62
71392;BME280;59205;50.610;12.638;2022-12-16T09:01:32;94872.00;;;-5.07;92.38
71392;BME280;59205;50.610;12.638;2022-12-16T09:04:16;94871.22;;;-5.11;92.05
71392;BME280;59205;50.610;12.638;2022-12-16T09:07:00;94873.13;;;-5.02;92.47
71392;BME280;59205;50.610;12.638;2022-12-16T09:09:44;94880.63;;;-4.55;91.49
71392;BME280;59205;50.610;12.638;2022-12-16T09:12:28;94879.13;;;-4.59;90.74
71392;BME280;59205;50.610;12.638;2022-12-16T09:15:11;94885.56;;;-4.74;90.36
71392;BME280;59205;50.610;12.638;2022-12-16T09:17:55;94886.31;;;-4.60;90.64
71392;BME280;59205;50.610;12.638;2022-12-16T09:20:40;94885.19;;;-4.55;90.93
71392;BME280;59205;50.610;12.638;2022-12-16T09:23:24;94885.13;;;-4.34;87.99
71392;BME280;59205;50.610;12.638;2022-12-16T09:26:08;94892.72;;;-4.64;87.83
71392;BME280;59205;50.610;12.638;2022-12-16T09:28:53;94904.44;;;-4.83;89.77
71392;BME280;59205;50.610;12.638;2022-12-16T09:31:37;94910.84;;;-4.94;90.89
71392;BME280;59205;50.610;12.638;2022-12-16T09:34:21;94906.69;;;-5.12;91.68
71392;BME280;59205;50.610;12.638;2022-12-16T09:37:04;94903.69;;;-5.18;93.02
71392;BME280;59205;50.610;12.638;2022-12-16T09:39:49;94899.84;;;-5.41;94.36
71392;BME280;59205;50.610;12.638;2022-12-16T09:49:04;94909.66;;;-5.52;95.55
71392;BME280;59205;50.610;12.638;2022-12-16T09:51:58;94919.78;;;-5.54;95.31
71392;BME280;59205;50.610;12.638;2022-12-16T09:54:45;94917.63;;;-5.14;94.58
71392;BME280;59205;50.610;12.638;2022-12-16T09:57:31;94916.13;;;-5.01;94.02
71392;BME280;59205;50.610;12.638;2022-12-16T10:00:23;94919.53;;;-5.07;92.40
71392;BME280;59205;50.610;12.638;2022-12-16T10:03:24;94926.56;;;-5.60;94.60
71392;BME280;59205;50.610;12.638;2022-12-16T10:15:14;94925.00;;;-5.75;97.55
71392;BME280;59205;50.610;12.638;2022-12-16T10:18:04;94942.34;;;-5.78;97.02
71392;BME280;59205;50.610;12.638;2022-12-16T10:20:54;94932.94;;;-5.79;96.83
71392;BME280;59205;50.610;12.638;2022-12-16T10:27:12;94937.78;;;-5.91;98.55
71392;BME280;59205;50.610;12.638;2022-12-16T10:29:57;94942.84;;;-6.30;99.27
71392;BME280;59205;50.610;12.638;2022-12-16T10:32:48;94951.66;;;-6.65;100.00
71392;BME280;59205;50.610;12.638;2022-12-16T10:38:24;94951.41;;;-5.79;99.25
71392;BME280;59205;50.610;12.638;2022-12-16T10:41:12;94959.66;;;-5.80;97.96
71392;BME280;59205;50.610;12.638;2022-12-16T10:43:58;94965.84;;;-6.27;98.07
71392;BME280;59205;50.610;12.638;2022-12-16T10:46:47;94960.22;;;-6.22;99.29
71392;BME280;59205;50.610;12.638;2022-12-16T10:49:33;94965.50;;;-6.18;99.95
71392;BME280;59205;50.610;12.638;2022-12-16T10:52:17;94961.03;;;-6.11;99.97
71392;BME280;59205;50.610;12.638;2022-12-16T10:55:11;94957.31;;;-6.03;99.42
71392;BME280;59205;50.610;12.638;2022-12-16T10:58:25;94967.53;;;-5.94;98.09
71392;BME280;59205;50.610;12.638;2022-12-16T11:01:25;94966.09;;;-6.46;99.63
71392;BME280;59205;50.610;12.638;2022-12-16T11:04:35;94962.75;;;-6.36;99.72
71392;BME280;59205;50.610;12.638;2022-12-16T11:10:36;94963.03;;;-6.51;100.00
71392;BME280;59205;50.610;12.638;2022-12-16T11:13:33;94963.22;;;-6.27;100.00
71392;BME280;59205;50.610;12.638;2022-12-16T11:16:23;94959.44;;;-6.22;99.99
71392;BME280;59205;50.610;12.638;2022-12-16T11:19:22;94966.63;;;-6.23;99.80
71392;BME280;59205;50.610;12.638;2022-12-16T11:22:16;94968.28;;;-6.55;99.58
71392;BME280;59205;50.610;12.638;2022-12-16T11:25:13;94963.84;;;-6.44;100.00
71392;BME280;59205;50.610;12.638;2022-12-16T11:30:51;94976.69;;;-6.32;99.72
71392;BME280;59205;50.610;12.638;2022-12-16T11:33:36;94971.22;;;-6.09;98.73
71392;BME280;59205;50.610;12.638;2022-12-16T11:36:22;94981.44;;;-5.94;97.57
71392;BME280;59205;50.610;12.638;2022-12-16T11:39:17;94978.66;;;-6.22;97.38
71392;BME280;59205;50.610;12.638;2022-12-16T11:42:03;94982.56;;;-6.02;97.33
71392;BME280;59205;50.610;12.638;2022-12-16T11:44:52;94992.31;;;-6.06;97.29
71392;BME280;59205;50.610;12.638;2022-12-16T11:47:50;94996.41;;;-6.12;97.09
71392;BME280;59205;50.610;12.638;2022-12-16T11:50:40;94997.59;;;-6.06;97.08
71392;BME280;59205;50.610;12.638;2022-12-16T11:56:47;95000.13;;;-6.20;97.13
71392;BME280;59205;50.610;12.638;2022-12-16T11:59:37;95003.53;;;-6.16;97.02
71392;BME280;59205;50.610;12.638;2022-12-16T12:02:31;95001.88;;;-5.70;97.85
71392;BME280;59205;50.610;12.638;2022-12-16T12:05:17;94994.22;;;-5.99;97.64
71392;BME280;59205;50.610;12.638;2022-12-16T12:08:11;95005.38;;;-6.23;98.14
71392;BME280;59205;50.610;12.638;2022-12-16T12:22:36;95010.53;;;-5.73;95.85
71392;BME280;59205;50.610;12.638;2022-12-16T12:28:22;95014.56;;;-6.00;96.06
71392;BME280;59205;50.610;12.638;2022-12-16T12:31:28;95023.50;;;-6.15;96.18
71392;BME280;59205;50.610;12.638;2022-12-16T12:37:18;95029.78;;;-6.30;98.32
71392;BME280;59205;50.610;12.638;2022-12-16T12:42:54;95034.00;;;-6.22;98.47
71392;BME280;59205;50.610;12.638;2022-12-16T12:46:13;95043.03;;;-6.23;99.26
71392;BME280;59205;50.610;12.638;2022-12-16T12:49:15;95051.53;;;-6.40;98.68
71392;BME280;59205;50.610;12.638;2022-12-16T12:52:21;95065.03;;;-6.48;98.97
71392;BME280;59205;50.610;12.638;2022-12-16T12:55:30;95065.38;;;-6.50;99.31
71392;BME280;59205;50.610;12.638;2022-12-16T12:58:15;95072.66;;;-6.36;99.42
71392;BME280;59205;50.610;12.638;2022-12-16T13:01:01;95060.88;;;-6.49;98.87
71392;BME280;59205;50.610;12.638;2022-12-16T13:03:55;95065.88;;;-6.34;99.34
71392;BME280;59205;50.610;12.638;2022-12-16T13:06:43;95068.88;;;-6.39;98.42
71392;BME280;59205;50.610;12.638;2022-12-16T13:09:35;95065.34;;;-6.53;98.95
71392;BME280;59205;50.610;12.638;2022-12-16T13:12:22;95062.25;;;-6.62;99.21
71392;BME280;59205;50.610;12.638;2022-12-16T13:20:49;95075.19;;;-6.47;99.09
71392;BME280;59205;50.610;12.638;2022-12-16T13:23:38;95088.97;;;-6.20;100.00
71392;BME280;59205;50.610;12.638;2022-12-16T13:26:25;95092.31;;;-5.66;100.00
71392;BME280;59205;50.610;12.638;2022-12-16T13:37:58;95110.16;;;-6.06;100.00
71392;BME280;59205;50.610;12.638;2022-12-16T13:40:59;95113.00;;;-5.82;100.00
71392;BME280;59205;50.610;12.638;2022-12-16T13:43:50;95123.72;;;-5.47;100.00
71392;BME280;59205;50.610;12.638;2022-12-16T13:46:43;95118.06;;;-6.50;99.97
71392;BME280;59205;50.610;12.638;2022-12-16T13:49:46;95121.69;;;-5.74;100.00
71392;BME280;59205;50.610;12.638;2022-12-16T13:52:47;95129.66;;;-6.18;100.00
71392;BME280;59205;50.610;12.638;2022-12-16T13:55:54;95134.47;;;-6.23;100.00
71392;BME280;59205;50.610;12.638;2022-12-16T13:59:00;95134.84;;;-6.64;100.00
71392;BME280;59205;50.610;12.638;2022-12-16T14:01:55;95137.25;;;-6.85;100.00
71392;BME280;59205;50.610;12.638;2022-12-16T14:04:58;95143.84;;;-7.02;100.00
71392;BME280;59205;50.610;12.638;2022-12-16T14:07:43;95147.78;;;-6.85;100.00
71392;BME280;59205;50.610;12.638;2022-12-16T14:10:32;95147.53;;;-6.73;100.00
71392;BME280;59205;50.610;12.638;2022-12-16T14:13:28;95154.78;;;-6.96;100.00
71392;BME280;59205;50.610;12.638;2022-12-16T14:17:03;95155.75;;;-7.11;100.00
71392;BME280;59205;50.610;12.638;2022-12-16T14:25:28;95172.72;;;-6.76;100.00
71392;BME280;59205;50.610;12.638;2022-12-16T14:28:28;95184.63;;;-6.85;100.00
71392;BME280;59205;50.610;12.638;2022-12-16T14:31:23;95191.75;;;-6.89;100.00
71392;BME280;59205;50.610;12.638;2022-12-16T14:34:32;95191.34;;;-7.17;100.00
71392;BME280;59205;50.610;12.638;2022-12-16T14:37:35;95211.19;;;-7.23;100.00
71392;BME280;59205;50.610;12.638;2022-12-16T14:40:23;95209.13;;;-7.11;100.00
71392;BME280;59205;50.610;12.638;2022-12-16T14:43:14;95212.88;;;-7.12;100.00
71392;BME280;59205;50.610;12.638;2022-12-16T14:45:59;95215.97;;;-7.03;100.00
71392;BME280;59205;50.610;12.638;2022-12-16T14:48:45;95220.97;;;-7.24;100.00
71392;BME280;59205;50.610;12.638;2022-12-16T14:51:34;95213.28;;;-7.36;100.00
71392;BME280;59205;50.610;12.638;2022-12-16T14:57:20;95213.03;;;-7.53;100.00
71392;BME280;59205;50.610;12.638;2022-12-16T15:02:54;95225.16;;;-7.45;100.00
71392;BME280;59205;50.610;12.638;2022-12-16T15:05:41;95231.94;;;-7.44;100.00
71392;BME280;59205;50.610;12.638;2022-12-16T15:08:27;95233.47;;;-7.43;100.00
71392;BME280;59205;50.610;12.638;2022-12-16T15:11:15;95236.44;;;-7.45;100.00
71392;BME280;59205;50.610;12.638;2022-12-16T15:14:01;95243.66;;;-7.38;100.00
71392;BME280;59205;50.610;12.638;2022-12-16T15:16:48;95250.84;;;-7.35;100.00
71392;BME280;59205;50.610;12.638;2022-12-16T15:19:42;95249.00;;;-7.35;100.00
71392;BME280;59205;50.610;12.638;2022-12-16T15:22:29;95258.34;;;-7.37;100.00
71392;BME280;59205;50.610;12.638;2022-12-16T15:25:24;95251.78;;;-7.24;100.00
71392;BME280;59205;50.610;12.638;2022-12-16T15:28:36;95257.47;;;-7.45;100.00
71392;BME280;59205;50.610;12.638;2022-12-16T15:31:24;95267.38;;;-7.61;100.00
71392;BME280;59205;50.610;12.638;2022-12-16T15:34:22;95269.53;;;-7.44;100.00
71392;BME280;59205;50.610;12.638;2022-12-16T15:37:22;95272.34;;;-7.30;100.00
71392;BME280;59205;50.610;12.638;2022-12-16T15:40:33;95273.22;;;-7.48;100.00
71392;BME280;59205;50.610;12.638;2022-12-16T15:43:30;95280.56;;;-7.35;100.00
71392;BME280;59205;50.610;12.638;2022-12-16T15:46:20;95274.44;;;-7.42;100.00
71392;BME280;59205;50.610;12.638;2022-12-16T15:49:17;95279.44;;;-7.34;100.00
71392;BME280;59205;50.610;12.638;2022-12-16T15:52:02;95284.53;;;-7.22;100.00